createdAt,value
2022-09-16T00:00:16.018Z,355
2022-09-16T00:01:15.868Z,351
2022-09-16T00:02:16.262Z,349
2022-09-16T00:03:15.962Z,355
2022-09-16T00:04:14.543Z,349
2022-09-16T00:05:16.475Z,358
2022-09-16T00:06:07.108Z,364
2022-09-16T00:07:16.720Z,358
2022-09-16T00:08:07.085Z,352
2022-09-16T00:09:15.614Z,356
2022-09-16T00:10:15.320Z,341
2022-09-16T00:11:16.684Z,338
2022-09-16T00:12:07.855Z,334
2022-09-16T00:13:16.866Z,343
2022-09-16T00:14:15.483Z,350
2022-09-16T00:15:15.494Z,348
2022-09-16T00:17:15.581Z,358
2022-09-16T00:18:16.420Z,348
2022-09-16T00:19:15.154Z,334
2022-09-16T00:20:15.826Z,345
2022-09-16T00:21:07.293Z,342
2022-09-16T00:22:15.659Z,344
2022-09-16T00:23:16.634Z,341
2022-09-16T00:24:14.916Z,346
2022-09-16T00:25:16.410Z,351
2022-09-16T00:26:16.120Z,350
2022-09-16T00:27:15.688Z,349
2022-09-16T00:28:16.640Z,360
2022-09-16T00:29:15.188Z,361
2022-09-16T00:30:15.638Z,360
2022-09-16T00:31:16.538Z,343
2022-09-16T00:32:15.921Z,339
2022-09-16T00:34:15.338Z,349
2022-09-16T00:35:16.515Z,358
2022-09-16T00:36:07.673Z,344
2022-09-16T00:37:07.893Z,348
2022-09-16T00:38:16.675Z,345
2022-09-16T00:39:07.167Z,350
2022-09-16T00:40:16.364Z,354
2022-09-16T00:41:07.349Z,351
2022-09-16T00:42:15.872Z,349
2022-09-16T00:43:06.854Z,358
2022-09-16T00:44:15.129Z,357
2022-09-16T00:45:16.722Z,356
2022-09-16T00:46:16.184Z,343
2022-09-16T00:47:07.157Z,350
2022-09-16T00:48:16.416Z,357
2022-09-16T00:49:15.173Z,360
2022-09-16T00:50:07.509Z,351
2022-09-16T00:52:16.001Z,344
2022-09-16T00:53:15.962Z,356
2022-09-16T00:54:06.554Z,354
2022-09-16T00:56:16.009Z,347
2022-09-16T00:57:07.928Z,346
2022-09-16T00:58:15.655Z,353
2022-09-16T00:59:15.433Z,352
2022-09-16T01:00:15.781Z,345
2022-09-16T01:01:16.626Z,342
2022-09-16T01:02:16.338Z,352
2022-09-16T01:03:15.934Z,349
2022-09-16T01:04:15.621Z,346
2022-09-16T01:05:15.877Z,347
2022-09-16T01:06:07.262Z,342
2022-09-16T01:07:15.873Z,345
2022-09-16T01:08:16.242Z,353
2022-09-16T01:09:15.339Z,349
2022-09-16T01:11:16.348Z,351
2022-09-16T01:12:06.865Z,348
2022-09-16T01:13:16.189Z,351
2022-09-16T01:14:14.787Z,349
2022-09-16T01:15:15.884Z,343
2022-09-16T01:16:15.830Z,349
2022-09-16T01:17:07.923Z,341
2022-09-16T01:18:15.703Z,339
2022-09-16T01:19:15.893Z,344
2022-09-16T01:20:16.202Z,347
2022-09-16T01:21:15.881Z,341
2022-09-16T01:22:16.178Z,357
2022-09-16T01:23:16.372Z,362
2022-09-16T01:24:15.078Z,353
2022-09-16T01:25:16.442Z,357
2022-09-16T01:26:06.972Z,369
2022-09-16T01:27:16.437Z,362
2022-09-16T01:28:07.517Z,356
2022-09-16T01:29:15.696Z,352
2022-09-16T01:30:15.931Z,350
2022-09-16T01:31:15.957Z,347
2022-09-16T01:32:15.732Z,350
2022-09-16T01:33:15.952Z,347
2022-09-16T01:34:14.907Z,351
2022-09-16T01:35:16.141Z,345
2022-09-16T01:36:15.402Z,341
2022-09-16T01:37:16.285Z,340
2022-09-16T01:38:16.530Z,358
2022-09-16T01:39:15.184Z,353
2022-09-16T01:40:08.063Z,357
2022-09-16T01:41:06.696Z,361
2022-09-16T01:42:07.304Z,338
2022-09-16T01:43:16.267Z,342
2022-09-16T01:44:06.666Z,355
2022-09-16T01:45:14.808Z,360
2022-09-16T01:47:16.637Z,359
2022-09-16T01:48:16.063Z,353
2022-09-16T01:49:07.007Z,355
2022-09-16T01:50:15.190Z,358
2022-09-16T01:51:16.271Z,357
2022-09-16T01:52:15.283Z,349
2022-09-16T01:53:07.426Z,352
2022-09-16T01:54:06.565Z,342
2022-09-16T01:55:15.670Z,336
2022-09-16T01:56:16.526Z,343
2022-09-16T01:57:18.023Z,351
2022-09-16T01:58:15.798Z,357
2022-09-16T01:59:15.676Z,365
2022-09-16T02:00:15.858Z,368
2022-09-16T02:01:15.133Z,364
2022-09-16T02:02:16.307Z,363
2022-09-16T02:03:15.883Z,372
2022-09-16T02:04:14.984Z,359
2022-09-16T02:05:16.137Z,366
2022-09-16T02:06:16.068Z,361
2022-09-16T02:07:15.520Z,357
2022-09-16T02:08:15.399Z,359
2022-09-16T02:09:15.089Z,356
2022-09-16T02:10:07.594Z,358
2022-09-16T02:11:07.121Z,350
2022-09-16T02:12:16.144Z,357
2022-09-16T02:13:15.694Z,346
2022-09-16T02:14:15.494Z,359
2022-09-16T02:15:15.640Z,367
2022-09-16T02:16:16.649Z,369
2022-09-16T02:17:07.447Z,361
2022-09-16T02:18:07.448Z,363
2022-09-16T02:19:14.802Z,355
2022-09-16T02:20:16.127Z,364
2022-09-16T02:21:15.798Z,367
2022-09-16T02:22:15.654Z,370
2022-09-16T02:23:16.757Z,366
2022-09-16T02:24:15.507Z,363
2022-09-16T02:25:15.601Z,362
2022-09-16T02:27:15.715Z,354
2022-09-16T02:28:16.602Z,348
2022-09-16T02:29:15.445Z,351
2022-09-16T02:30:15.704Z,355
2022-09-16T02:32:16.158Z,367
2022-09-16T02:33:15.492Z,370
2022-09-16T02:34:15.572Z,381
2022-09-16T02:35:16.210Z,366
2022-09-16T02:36:15.384Z,353
2022-09-16T02:37:07.550Z,357
2022-09-16T02:38:15.223Z,356
2022-09-16T02:39:15.559Z,355
2022-09-16T02:40:16.001Z,364
2022-09-16T02:41:16.328Z,372
2022-09-16T02:42:16.073Z,373
2022-09-16T02:43:15.631Z,370
2022-09-16T02:45:16.270Z,366
2022-09-16T02:46:16.061Z,354
2022-09-16T02:47:15.749Z,358
2022-09-16T02:48:07.111Z,371
2022-09-16T02:49:14.772Z,364
2022-09-16T02:50:16.001Z,358
2022-09-16T02:51:07.402Z,356
2022-09-16T02:52:15.258Z,361
2022-09-16T02:53:16.715Z,349
2022-09-16T02:54:15.356Z,353
2022-09-16T02:55:15.265Z,364
2022-09-16T02:56:16.357Z,362
2022-09-16T02:57:15.970Z,365
2022-09-16T02:58:15.574Z,358
2022-09-16T02:59:06.714Z,353
2022-09-16T03:00:15.514Z,358
2022-09-16T03:01:16.258Z,362
2022-09-16T03:02:16.261Z,357
2022-09-16T03:03:15.434Z,360
2022-09-16T03:04:14.969Z,355
2022-09-16T03:05:15.515Z,349
2022-09-16T03:06:16.423Z,350
2022-09-16T03:07:16.239Z,361
2022-09-16T03:08:06.890Z,358
2022-09-16T03:09:14.971Z,347
2022-09-16T03:10:16.036Z,351
2022-09-16T03:11:16.008Z,347
2022-09-16T03:12:14.741Z,359
2022-09-16T03:13:15.657Z,361
2022-09-16T03:14:14.823Z,337
2022-09-16T03:15:16.675Z,341
2022-09-16T03:16:16.127Z,360
2022-09-16T03:18:15.728Z,354
2022-09-16T03:19:15.574Z,356
2022-09-16T03:21:15.914Z,367
2022-09-16T03:22:15.596Z,370
2022-09-16T03:23:16.019Z,358
2022-09-16T03:24:14.797Z,352
2022-09-16T03:25:16.359Z,359
2022-09-16T03:26:15.536Z,365
2022-09-16T03:27:07.105Z,360
2022-09-16T03:28:16.038Z,358
2022-09-16T03:29:15.663Z,363
2022-09-16T03:30:16.444Z,359
2022-09-16T03:31:15.860Z,360
2022-09-16T03:32:16.355Z,355
2022-09-16T03:33:07.618Z,364
2022-09-16T03:34:07.725Z,354
2022-09-16T03:35:16.267Z,355
2022-09-16T03:36:16.093Z,364
2022-09-16T03:37:07.041Z,378
2022-09-16T03:38:16.099Z,374
2022-09-16T03:39:15.754Z,373
2022-09-16T03:40:16.307Z,365
2022-09-16T03:41:15.926Z,362
2022-09-16T03:42:16.442Z,360
2022-09-16T03:43:16.403Z,359
2022-09-16T03:44:06.005Z,370
2022-09-16T03:45:15.718Z,366
2022-09-16T03:46:15.186Z,365
2022-09-16T03:47:08.015Z,363
2022-09-16T03:49:38.818Z,356
2022-09-16T03:50:15.793Z,357
2022-09-16T03:51:16.367Z,360
2022-09-16T03:52:16.187Z,363
2022-09-16T03:53:15.633Z,360
2022-09-16T03:54:15.460Z,358
2022-09-16T03:55:15.973Z,369
2022-09-16T03:56:15.823Z,362
2022-09-16T03:57:16.577Z,357
2022-09-16T03:58:16.084Z,355
2022-09-16T03:59:15.955Z,353
2022-09-16T04:00:15.878Z,348
2022-09-16T04:01:15.603Z,355
2022-09-16T04:02:16.504Z,349
2022-09-16T04:03:16.112Z,348
2022-09-16T04:04:05.979Z,357
2022-09-16T04:05:15.863Z,364
2022-09-16T04:06:16.162Z,360
2022-09-16T04:07:15.881Z,340
2022-09-16T04:08:16.828Z,345
2022-09-16T04:09:15.366Z,352
2022-09-16T04:10:15.783Z,354
2022-09-16T04:11:16.687Z,359
2022-09-16T04:12:16.335Z,352
2022-09-16T04:13:16.098Z,363
2022-09-16T04:14:15.308Z,358
2022-09-16T04:15:16.131Z,352
2022-09-16T04:16:16.245Z,351
2022-09-16T04:17:15.846Z,354
2022-09-16T04:18:16.867Z,369
2022-09-16T04:19:15.357Z,359
2022-09-16T04:20:06.720Z,353
2022-09-16T04:21:15.579Z,350
2022-09-16T04:22:16.348Z,358
2022-09-16T04:23:16.364Z,360
2022-09-16T04:24:16.691Z,355
2022-09-16T04:28:43.646Z,328
2022-09-16T04:29:14.761Z,331
2022-09-16T04:30:15.893Z,341
2022-09-16T04:31:15.785Z,345
2022-09-16T04:32:14.982Z,351
2022-09-16T04:33:15.254Z,361
2022-09-16T04:34:14.475Z,359
2022-09-16T04:35:06.944Z,356
2022-09-16T04:36:15.802Z,362
2022-09-16T04:37:15.865Z,361
2022-09-16T04:38:15.105Z,355
2022-09-16T04:39:15.724Z,351
2022-09-16T04:40:15.701Z,361
2022-09-16T04:41:15.521Z,354
2022-09-16T04:42:16.581Z,356
2022-09-16T04:43:16.084Z,362
2022-09-16T04:44:14.951Z,360
2022-09-16T04:45:16.396Z,361
2022-09-16T04:46:16.292Z,360
2022-09-16T04:48:15.317Z,357
2022-09-16T04:49:14.691Z,358
2022-09-16T04:50:18.436Z,356
2022-09-16T04:51:15.678Z,350
2022-09-16T04:52:15.772Z,353
2022-09-16T04:53:15.619Z,356
2022-09-16T04:54:06.405Z,363
2022-09-16T04:55:15.289Z,361
2022-09-16T04:56:15.050Z,355
2022-09-16T04:57:16.279Z,346
2022-09-16T04:58:15.967Z,350
2022-09-16T04:59:14.495Z,355
2022-09-16T05:00:15.904Z,358
2022-09-16T05:01:15.499Z,364
2022-09-16T05:02:15.627Z,359
2022-09-16T05:03:15.974Z,360
2022-09-16T05:04:14.730Z,354
2022-09-16T05:05:16.162Z,360
2022-09-16T05:06:19.858Z,358
2022-09-16T05:07:16.200Z,356
2022-09-16T05:08:15.925Z,364
2022-09-16T05:09:14.889Z,365
2022-09-16T05:10:16.388Z,364
2022-09-16T05:11:16.281Z,354
2022-09-16T05:12:16.167Z,351
2022-09-16T05:13:21.549Z,358
2022-09-16T05:14:20.858Z,365
2022-09-16T05:15:15.613Z,361
2022-09-16T05:16:16.253Z,370
2022-09-16T05:18:15.941Z,363
2022-09-16T05:19:16.507Z,372
2022-09-16T05:20:07.617Z,376
2022-09-16T05:21:16.229Z,362
2022-09-16T05:22:15.675Z,356
2022-09-16T05:23:16.193Z,355
2022-09-16T05:24:15.278Z,358
2022-09-16T05:25:07.032Z,360
2022-09-16T05:26:15.941Z,358
2022-09-16T05:27:16.868Z,367
2022-09-16T05:28:15.904Z,366
2022-09-16T05:29:15.129Z,373
2022-09-16T05:30:07.742Z,366
2022-09-16T05:31:15.607Z,362
2022-09-16T05:32:16.174Z,358
2022-09-16T05:33:06.585Z,368
2022-09-16T05:34:15.326Z,373
2022-09-16T05:35:15.643Z,364
2022-09-16T05:36:16.899Z,352
2022-09-16T05:38:16.282Z,348
2022-09-16T05:39:23.262Z,357
2022-09-16T05:40:15.325Z,362
2022-09-16T05:41:15.667Z,371
2022-09-16T05:42:16.555Z,375
2022-09-16T05:43:15.950Z,360
2022-09-16T05:44:14.707Z,347
2022-09-16T05:45:20.143Z,352
2022-09-16T05:46:16.159Z,362
2022-09-16T05:47:15.729Z,361
2022-09-16T05:48:16.076Z,362
2022-09-16T05:49:15.458Z,373
2022-09-16T05:50:16.254Z,359
2022-09-16T05:51:07.156Z,361
2022-09-16T05:52:15.960Z,365
2022-09-16T05:53:16.405Z,363
2022-09-16T05:54:14.840Z,359
2022-09-16T05:56:16.166Z,356
2022-09-16T05:57:15.854Z,367
2022-09-16T05:58:16.326Z,372
2022-09-16T05:59:15.344Z,369
2022-09-16T06:00:15.389Z,367
2022-09-16T06:01:16.466Z,361
2022-09-16T06:02:15.854Z,357
2022-09-16T06:03:06.983Z,352
2022-09-16T06:04:15.057Z,356
2022-09-16T06:05:07.910Z,349
2022-09-16T06:06:15.686Z,346
2022-09-16T06:07:16.276Z,350
2022-09-16T06:08:15.784Z,355
2022-09-16T06:09:15.865Z,350
2022-09-16T06:10:15.407Z,362
2022-09-16T06:11:15.868Z,350
2022-09-16T06:12:16.749Z,352
2022-09-16T06:13:16.388Z,348
2022-09-16T06:14:14.842Z,345
2022-09-16T06:15:16.794Z,338
2022-09-16T06:16:07.459Z,343
2022-09-16T06:17:16.442Z,349
2022-09-16T06:18:07.199Z,359
2022-09-16T06:19:07.054Z,369
2022-09-16T06:20:16.651Z,365
2022-09-16T06:21:16.033Z,358
2022-09-16T06:22:06.921Z,349
2022-09-16T06:23:16.111Z,350
2022-09-16T06:24:15.298Z,360
2022-09-16T06:25:07.507Z,365
2022-09-16T06:26:15.677Z,369
2022-09-16T06:27:15.544Z,363
2022-09-16T06:28:15.687Z,364
2022-09-16T06:29:14.739Z,359
2022-09-16T06:30:15.573Z,351
2022-09-16T06:31:15.865Z,349
2022-09-16T06:32:15.957Z,345
2022-09-16T06:33:15.924Z,338
2022-09-16T06:34:15.309Z,349
2022-09-16T06:35:16.609Z,353
2022-09-16T06:36:07.832Z,347
2022-09-16T06:37:16.098Z,342
2022-09-16T06:38:07.398Z,351
2022-09-16T06:39:06.343Z,352
2022-09-16T06:40:16.056Z,361
2022-09-16T06:41:17.049Z,356
2022-09-16T06:42:16.355Z,355
2022-09-16T06:43:15.981Z,356
2022-09-16T06:45:16.350Z,350
2022-09-16T06:46:16.091Z,341
2022-09-16T06:48:06.922Z,360
2022-09-16T06:49:14.893Z,353
2022-09-16T06:50:16.960Z,358
2022-09-16T06:51:16.157Z,341
2022-09-16T06:52:15.834Z,342
2022-09-16T06:53:07.790Z,337
2022-09-16T06:54:14.645Z,355
2022-09-16T06:55:16.500Z,352
2022-09-16T06:56:15.962Z,360
2022-09-16T06:58:16.003Z,354
2022-09-16T06:59:16.140Z,361
2022-09-16T07:00:16.656Z,358
2022-09-16T07:02:07.371Z,360
2022-09-16T07:03:15.226Z,371
